createdAt,value
2016-12-05T00:00:55.939Z,976.28
2016-12-05T00:01:55.936Z,976.34
2016-12-05T00:02:55.932Z,976.3
2016-12-05T00:03:55.928Z,976.29
2016-12-05T00:04:55.924Z,976.28
2016-12-05T00:05:55.920Z,976.29
2016-12-05T00:06:55.912Z,976.3
2016-12-05T00:07:55.908Z,976.31
2016-12-05T00:08:55.904Z,976.3
2016-12-05T00:09:55.901Z,976.33
2016-12-05T00:10:55.896Z,976.36
2016-12-05T00:11:55.892Z,976.36
2016-12-05T00:12:55.888Z,976.37
2016-12-05T00:13:55.884Z,976.38
2016-12-05T00:14:55.877Z,976.41
2016-12-05T00:15:55.872Z,976.37
2016-12-05T00:16:55.869Z,976.38
2016-12-05T00:17:55.865Z,976.41
2016-12-05T00:18:55.860Z,976.39
2016-12-05T00:19:55.857Z,976.43
2016-12-05T00:20:55.853Z,976.42
2016-12-05T00:21:55.849Z,976.39
2016-12-05T00:22:55.845Z,976.41
2016-12-05T00:23:55.841Z,976.44
2016-12-05T00:24:55.833Z,976.42
2016-12-05T00:25:55.829Z,976.41
2016-12-05T00:26:55.825Z,976.35
2016-12-05T00:27:55.821Z,976.39
2016-12-05T00:28:55.817Z,976.38
2016-12-05T00:29:55.813Z,976.41
2016-12-05T00:30:55.810Z,976.4
2016-12-05T00:31:55.806Z,976.39
2016-12-05T00:32:55.802Z,976.37
2016-12-05T00:33:55.798Z,976.42
2016-12-05T00:34:55.794Z,976.4
2016-12-05T00:35:55.786Z,976.42
2016-12-05T00:36:55.785Z,976.37
2016-12-05T00:37:55.778Z,976.37
2016-12-05T00:38:55.774Z,976.39
2016-12-05T00:39:55.770Z,976.4
2016-12-05T00:40:55.766Z,976.37
2016-12-05T00:41:55.762Z,976.37
2016-12-05T00:42:55.758Z,976.37
2016-12-05T00:43:55.754Z,976.35
2016-12-05T00:44:55.750Z,976.37
2016-12-05T00:45:55.747Z,976.38
2016-12-05T00:46:55.739Z,976.39
2016-12-05T00:47:55.734Z,976.41
2016-12-05T00:48:55.731Z,976.42
2016-12-05T00:49:55.726Z,976.44
2016-12-05T00:50:55.722Z,976.42
2016-12-05T00:51:55.719Z,976.49
2016-12-05T00:52:55.714Z,976.47
2016-12-05T00:53:55.711Z,976.46
2016-12-05T00:54:55.706Z,976.45
2016-12-05T00:55:55.702Z,976.49
2016-12-05T00:56:55.699Z,976.47
2016-12-05T00:57:55.690Z,976.46
2016-12-05T00:58:55.687Z,976.46
2016-12-05T00:59:55.683Z,976.48
2016-12-05T01:00:55.679Z,976.5
2016-12-05T01:01:55.674Z,976.47
2016-12-05T01:02:55.671Z,976.5
2016-12-05T01:03:55.666Z,976.47
2016-12-05T01:04:55.663Z,976.52
2016-12-05T01:05:55.659Z,976.55
2016-12-05T01:06:55.655Z,976.49
2016-12-05T01:07:55.651Z,976.51
2016-12-05T01:08:55.647Z,976.57
2016-12-05T01:09:55.639Z,976.54
2016-12-05T01:10:55.635Z,976.52
2016-12-05T01:11:55.631Z,976.54
2016-12-05T01:12:55.627Z,976.52
2016-12-05T01:13:55.623Z,976.53
2016-12-05T01:14:55.619Z,976.51
2016-12-05T01:15:55.616Z,976.54
2016-12-05T01:16:55.611Z,976.54
2016-12-05T01:17:55.608Z,976.53
2016-12-05T01:18:55.604Z,976.54
2016-12-05T01:19:55.596Z,976.54
2016-12-05T01:20:55.592Z,976.57
2016-12-05T01:21:55.588Z,976.53
2016-12-05T01:22:55.584Z,976.56
2016-12-05T01:23:55.584Z,976.55
2016-12-05T01:24:55.576Z,976.57
2016-12-05T01:25:55.572Z,976.59
2016-12-05T01:26:55.568Z,976.61
2016-12-05T01:27:55.564Z,976.61
2016-12-05T01:28:55.564Z,976.6
2016-12-05T01:29:55.556Z,976.58
2016-12-05T01:30:55.549Z,976.58
2016-12-05T01:31:55.545Z,976.64
2016-12-05T01:32:55.541Z,976.6
2016-12-05T01:33:55.538Z,976.59
2016-12-05T01:34:55.533Z,976.62
2016-12-05T01:35:55.529Z,976.63
2016-12-05T01:36:55.525Z,976.61
2016-12-05T01:37:55.521Z,976.62
2016-12-05T01:38:55.517Z,976.62
2016-12-05T01:39:55.513Z,976.63
2016-12-05T01:40:55.509Z,976.59
2016-12-05T01:41:55.505Z,976.62
2016-12-05T01:42:55.501Z,976.62
2016-12-05T01:43:55.504Z,976.59
2016-12-05T01:44:55.489Z,976.61
2016-12-05T01:45:55.486Z,976.61
2016-12-05T01:46:55.483Z,976.59
2016-12-05T01:47:55.477Z,976.64
2016-12-05T01:48:55.474Z,976.65
2016-12-05T01:49:55.470Z,976.61
2016-12-05T01:50:55.466Z,976.63
2016-12-05T01:51:55.462Z,976.63
2016-12-05T01:52:55.458Z,976.65
2016-12-05T01:53:55.454Z,976.63
2016-12-05T01:54:55.450Z,976.66
2016-12-05T01:55:55.446Z,976.61
2016-12-05T01:56:55.438Z,976.58
2016-12-05T01:57:55.434Z,976.63
2016-12-05T01:58:55.430Z,976.63
2016-12-05T01:59:55.427Z,976.61
2016-12-05T02:00:55.423Z,976.61
2016-12-05T02:01:55.419Z,976.62
2016-12-05T02:02:55.415Z,976.61
2016-12-05T02:03:55.411Z,976.63
2016-12-05T02:04:55.407Z,976.62
2016-12-05T02:05:55.403Z,976.59
2016-12-05T02:06:55.399Z,976.57
2016-12-05T02:07:55.395Z,976.58
2016-12-05T02:08:55.391Z,976.56
2016-12-05T02:09:55.387Z,976.56
2016-12-05T02:10:55.379Z,976.57
2016-12-05T02:11:55.375Z,976.59
2016-12-05T02:12:55.372Z,976.59
2016-12-05T02:13:55.368Z,976.57
2016-12-05T02:14:55.364Z,976.62
2016-12-05T02:15:55.360Z,976.59
2016-12-05T02:16:55.356Z,976.6
2016-12-05T02:17:55.352Z,976.62
2016-12-05T02:18:55.348Z,976.62
2016-12-05T02:19:55.344Z,976.61
2016-12-05T02:20:55.340Z,976.65
2016-12-05T02:21:55.332Z,976.61
2016-12-05T02:22:55.329Z,976.62
2016-12-05T02:23:55.324Z,976.61
2016-12-05T02:24:55.320Z,976.59
2016-12-05T02:25:55.316Z,976.59
2016-12-05T02:26:55.312Z,976.61
2016-12-05T02:27:55.308Z,976.58
2016-12-05T02:28:55.304Z,976.59
2016-12-05T02:29:55.300Z,976.61
2016-12-05T02:30:55.297Z,976.59
2016-12-05T02:31:55.292Z,976.58
2016-12-05T02:32:55.289Z,976.57
2016-12-05T02:33:55.285Z,976.56
2016-12-05T02:34:55.281Z,976.56
2016-12-05T02:35:55.277Z,976.58
2016-12-05T02:36:55.269Z,976.59
2016-12-05T02:37:55.265Z,976.61
2016-12-05T02:38:55.261Z,976.56
2016-12-05T02:39:55.257Z,976.55
2016-12-05T02:40:55.253Z,976.58
2016-12-05T02:41:55.249Z,976.56
2016-12-05T02:42:55.246Z,976.59
2016-12-05T02:43:55.241Z,976.57
2016-12-05T02:44:55.238Z,976.56
2016-12-05T02:45:55.234Z,976.57
2016-12-05T02:46:55.229Z,976.55
2016-12-05T02:47:55.226Z,976.59
2016-12-05T02:48:55.225Z,976.57
2016-12-05T02:49:55.218Z,976.6
2016-12-05T02:50:55.210Z,976.59
2016-12-05T02:51:55.206Z,976.58
2016-12-05T02:52:55.202Z,976.56
2016-12-05T02:53:55.198Z,976.59
2016-12-05T02:54:55.194Z,976.6
2016-12-05T02:55:55.190Z,976.59
2016-12-05T02:56:55.186Z,976.55
2016-12-05T02:57:55.182Z,976.54
2016-12-05T02:58:55.178Z,976.52
2016-12-05T02:59:55.174Z,976.56
2016-12-05T03:00:55.170Z,976.53
2016-12-05T03:01:55.166Z,976.52
2016-12-05T03:02:55.163Z,976.52
2016-12-05T03:03:55.159Z,976.52
2016-12-05T03:04:55.155Z,976.51
2016-12-05T03:05:55.147Z,976.55
2016-12-05T03:06:55.143Z,976.51
2016-12-05T03:07:55.139Z,976.47
2016-12-05T03:08:55.135Z,976.52
2016-12-05T03:09:55.131Z,976.49
2016-12-05T03:10:55.127Z,976.47
2016-12-05T03:11:55.123Z,976.47
2016-12-05T03:12:55.119Z,976.5
2016-12-05T03:13:55.115Z,976.47
2016-12-05T03:14:55.111Z,976.5
2016-12-05T03:15:55.107Z,976.52
2016-12-05T03:16:55.103Z,976.53
2016-12-05T03:17:55.100Z,976.53
2016-12-05T03:18:55.096Z,976.49
2016-12-05T03:19:55.092Z,976.49
2016-12-05T03:20:55.090Z,976.49
2016-12-05T03:21:55.084Z,976.51
2016-12-05T03:22:55.080Z,976.49
2016-12-05T03:23:55.072Z,976.51
2016-12-05T03:24:55.068Z,976.54
2016-12-05T03:25:55.064Z,976.53
2016-12-05T03:26:55.060Z,976.57
2016-12-05T03:27:55.056Z,976.53
2016-12-05T03:28:55.053Z,976.56
2016-12-05T03:29:55.048Z,976.57
2016-12-05T03:30:55.044Z,976.57
2016-12-05T03:31:55.189Z,976.56
2016-12-05T03:32:55.037Z,976.58
2016-12-05T03:33:55.033Z,976.6
2016-12-05T03:34:55.029Z,976.57
2016-12-05T03:35:55.025Z,976.55
2016-12-05T03:36:55.021Z,976.54
2016-12-05T03:37:55.017Z,976.52
2016-12-05T03:38:55.009Z,976.57
2016-12-05T03:39:55.007Z,976.53
2016-12-05T03:40:55.001Z,976.54
2016-12-05T03:41:54.997Z,976.5
2016-12-05T03:42:54.994Z,976.5
2016-12-05T03:43:54.990Z,976.55
2016-12-05T03:44:54.986Z,976.51
2016-12-05T03:45:54.981Z,976.52
2016-12-05T03:46:54.978Z,976.53
2016-12-05T03:47:54.974Z,976.51
2016-12-05T03:48:54.970Z,976.52
2016-12-05T03:49:54.966Z,976.55
2016-12-05T03:50:54.962Z,976.53
2016-12-05T03:51:54.958Z,976.53
2016-12-05T03:52:54.950Z,976.54
2016-12-05T03:53:54.946Z,976.53
2016-12-05T03:54:54.942Z,976.49
2016-12-05T03:55:54.938Z,976.49
2016-12-05T03:56:54.934Z,976.46
2016-12-05T03:57:54.930Z,976.43
2016-12-05T03:58:54.926Z,976.44
2016-12-05T03:59:54.922Z,976.46
2016-12-05T04:00:54.919Z,976.43
2016-12-05T04:01:54.914Z,976.43
2016-12-05T04:02:54.910Z,976.45
2016-12-05T04:03:54.906Z,976.42
2016-12-05T04:04:54.903Z,976.42
2016-12-05T04:05:54.899Z,976.44
2016-12-05T04:06:54.895Z,976.46
2016-12-05T04:07:54.886Z,976.4
2016-12-05T04:08:54.883Z,976.42
2016-12-05T04:09:54.879Z,976.4
2016-12-05T04:10:54.875Z,976.38
2016-12-05T04:11:54.871Z,976.39
2016-12-05T04:12:54.867Z,976.35
2016-12-05T04:13:54.863Z,976.4
2016-12-05T04:14:54.859Z,976.36
2016-12-05T04:15:54.855Z,976.39
2016-12-05T04:16:54.851Z,976.4
2016-12-05T04:17:54.847Z,976.37
2016-12-05T04:18:54.839Z,976.35
2016-12-05T04:19:54.839Z,976.34
2016-12-05T04:20:54.831Z,976.35
2016-12-05T04:21:54.827Z,976.32
2016-12-05T04:22:54.823Z,976.34
2016-12-05T04:23:54.819Z,976.33
2016-12-05T04:24:54.815Z,976.32
2016-12-05T04:25:54.811Z,976.31
2016-12-05T04:26:54.807Z,976.33
2016-12-05T04:27:54.804Z,976.33
2016-12-05T04:28:54.799Z,976.31
2016-12-05T04:29:54.795Z,976.33
2016-12-05T04:30:54.791Z,976.32
2016-12-05T04:31:54.787Z,976.39
2016-12-05T04:32:54.783Z,976.37
2016-12-05T04:33:54.775Z,976.33
2016-12-05T04:34:54.771Z,976.32
2016-12-05T04:35:54.767Z,976.34
2016-12-05T04:36:54.763Z,976.34
2016-12-05T04:37:54.759Z,976.34
2016-12-05T04:38:54.754Z,976.33
2016-12-05T04:39:54.750Z,976.36
2016-12-05T04:40:54.746Z,976.39
2016-12-05T04:41:54.742Z,976.35
2016-12-05T04:42:54.739Z,976.37
2016-12-05T04:43:54.735Z,976.34
2016-12-05T04:44:54.731Z,976.41
2016-12-05T04:45:54.726Z,976.36
2016-12-05T04:46:54.722Z,976.33
2016-12-05T04:47:54.719Z,976.32
2016-12-05T04:48:54.715Z,976.34
2016-12-05T04:49:54.711Z,976.32
2016-12-05T04:50:54.707Z,976.31
2016-12-05T04:51:54.699Z,976.34
2016-12-05T04:52:54.695Z,976.37
2016-12-05T04:53:54.691Z,976.38
2016-12-05T04:54:54.687Z,976.34
2016-12-05T04:55:54.683Z,976.35
2016-12-05T04:56:54.679Z,976.34
2016-12-05T04:57:54.675Z,976.38
2016-12-05T04:58:54.671Z,976.34
2016-12-05T04:59:54.667Z,976.39
2016-12-05T05:00:54.668Z,976.39
2016-12-05T05:01:54.659Z,976.38
2016-12-05T05:02:54.655Z,976.39
2016-12-05T05:03:54.651Z,976.41
2016-12-05T05:04:54.647Z,976.37
2016-12-05T05:05:54.640Z,976.39
2016-12-05T05:06:54.636Z,976.37
2016-12-05T05:07:54.631Z,976.39
2016-12-05T05:08:54.628Z,976.4
2016-12-05T05:09:54.623Z,976.42
2016-12-05T05:10:54.620Z,976.45
2016-12-05T05:11:54.616Z,976.42
2016-12-05T05:12:54.612Z,976.41
2016-12-05T05:13:54.608Z,976.41
2016-12-05T05:14:54.604Z,976.43
2016-12-05T05:15:54.600Z,976.42
2016-12-05T05:16:54.592Z,976.42
2016-12-05T05:17:54.588Z,976.42
2016-12-05T05:18:54.584Z,976.41
2016-12-05T05:19:54.580Z,976.43
2016-12-05T05:20:54.576Z,976.41
2016-12-05T05:21:54.572Z,976.38
2016-12-05T05:22:54.568Z,976.4
2016-12-05T05:23:54.566Z,976.44
2016-12-05T05:24:54.560Z,976.46
2016-12-05T05:25:54.556Z,976.44
2016-12-05T05:26:54.553Z,976.48
2016-12-05T05:27:54.548Z,976.46
2016-12-05T05:28:54.545Z,976.43
2016-12-05T05:29:54.541Z,976.46
2016-12-05T05:30:54.537Z,976.44
2016-12-05T05:31:54.529Z,976.44
2016-12-05T05:32:54.525Z,976.43
2016-12-05T05:33:54.521Z,976.44
2016-12-05T05:34:54.517Z,976.45
2016-12-05T05:35:54.513Z,976.47
2016-12-05T05:36:54.509Z,976.46
2016-12-05T05:37:54.505Z,976.45
2016-12-05T05:38:54.501Z,976.44
2016-12-05T05:39:54.497Z,976.44
2016-12-05T05:40:54.493Z,976.43
2016-12-05T05:41:54.491Z,976.47
2016-12-05T05:42:54.485Z,976.47
2016-12-05T05:43:54.484Z,976.49
2016-12-05T05:44:54.478Z,976.47
2016-12-05T05:45:54.474Z,976.5
2016-12-05T05:46:54.466Z,976.51
2016-12-05T05:47:54.462Z,976.49
2016-12-05T05:48:54.460Z,976.52
2016-12-05T05:49:54.454Z,976.51
2016-12-05T05:50:54.450Z,976.52
2016-12-05T05:51:54.446Z,976.52
2016-12-05T05:52:54.442Z,976.52
2016-12-05T05:53:54.438Z,976.51
2016-12-05T05:54:54.434Z,976.52
2016-12-05T05:55:54.431Z,976.5
2016-12-05T05:56:54.426Z,976.52
2016-12-05T05:57:54.418Z,976.48
2016-12-05T05:58:54.414Z,976.48
2016-12-05T05:59:54.410Z,976.46
2016-12-05T06:00:54.407Z,976.42
2016-12-05T06:01:54.403Z,976.44
2016-12-05T06:02:54.399Z,976.43
2016-12-05T06:03:54.394Z,976.4
2016-12-05T06:04:54.391Z,976.39
2016-12-05T06:05:54.387Z,976.41
2016-12-05T06:06:54.383Z,976.38
2016-12-05T06:07:54.379Z,976.43
2016-12-05T06:08:54.375Z,976.38
2016-12-05T06:09:54.371Z,976.43
2016-12-05T06:10:54.367Z,976.41
2016-12-05T06:11:54.359Z,976.44
2016-12-05T06:12:54.355Z,976.43
2016-12-05T06:13:54.351Z,976.45
2016-12-05T06:14:54.347Z,976.5
2016-12-05T06:15:54.343Z,976.47
2016-12-05T06:16:54.339Z,976.5
2016-12-05T06:17:54.335Z,976.52
2016-12-05T06:18:54.331Z,976.54
2016-12-05T06:19:54.327Z,976.54
2016-12-05T06:20:54.323Z,976.54
2016-12-05T06:21:54.320Z,976.57
2016-12-05T06:22:54.316Z,976.6
2016-12-05T06:23:54.312Z,976.6
2016-12-05T06:24:54.308Z,976.58
2016-12-05T06:25:54.304Z,976.58
2016-12-05T06:26:54.299Z,976.59
2016-12-05T06:27:54.296Z,976.58
2016-12-05T06:28:54.292Z,976.58
2016-12-05T06:29:54.284Z,976.61
2016-12-05T06:30:54.280Z,976.59
2016-12-05T06:31:54.275Z,976.6
2016-12-05T06:32:54.272Z,976.61
2016-12-05T06:33:54.268Z,976.62
2016-12-05T06:34:54.264Z,976.64
2016-12-05T06:35:54.260Z,976.63
2016-12-05T06:36:54.256Z,976.61
2016-12-05T06:37:54.252Z,976.61
2016-12-05T06:38:54.248Z,976.61
2016-12-05T06:39:54.244Z,976.59
2016-12-05T06:40:54.240Z,976.61
2016-12-05T06:41:54.236Z,976.61
2016-12-05T06:42:54.232Z,976.63
2016-12-05T06:43:54.228Z,976.61
2016-12-05T06:44:54.223Z,976.63
2016-12-05T06:45:54.216Z,976.57
2016-12-05T06:46:54.213Z,976.64
2016-12-05T06:47:54.210Z,976.65
2016-12-05T06:48:54.205Z,976.66
2016-12-05T06:49:54.201Z,976.69
2016-12-05T06:50:54.198Z,976.72
2016-12-05T06:51:54.193Z,976.72
2016-12-05T06:52:54.189Z,976.72
2016-12-05T06:53:54.187Z,976.73
2016-12-05T06:54:54.181Z,976.73
2016-12-05T06:55:54.177Z,976.77
2016-12-05T06:56:54.173Z,976.75
2016-12-05T06:57:54.169Z,976.78
2016-12-05T06:58:54.165Z,976.82
2016-12-05T06:59:54.157Z,976.83
2016-12-05T07:00:54.153Z,976.8
2016-12-05T07:01:54.149Z,976.84
2016-12-05T07:02:54.145Z,976.82
2016-12-05T07:03:54.141Z,976.84
2016-12-05T07:04:54.138Z,976.86
2016-12-05T07:05:54.134Z,976.87
2016-12-05T07:06:54.129Z,976.82
2016-12-05T07:07:54.126Z,976.84
2016-12-05T07:08:54.122Z,976.83
2016-12-05T07:09:54.118Z,976.81
2016-12-05T07:10:54.114Z,976.86
2016-12-05T07:11:54.110Z,976.86
2016-12-05T07:12:54.106Z,976.85
2016-12-05T07:13:54.098Z,976.9
2016-12-05T07:14:54.094Z,976.86
2016-12-05T07:15:54.090Z,976.84
2016-12-05T07:16:54.085Z,976.84
2016-12-05T07:17:54.081Z,976.84
2016-12-05T07:18:54.077Z,976.82
2016-12-05T07:19:54.073Z,976.86
2016-12-05T07:20:54.069Z,976.85
2016-12-05T07:21:54.065Z,976.86
2016-12-05T07:22:54.061Z,976.89
2016-12-05T07:23:54.057Z,976.92
2016-12-05T07:24:54.053Z,976.93
2016-12-05T07:25:54.049Z,976.95
2016-12-05T07:26:54.045Z,976.97
2016-12-05T07:27:54.041Z,976.98
2016-12-05T07:28:54.037Z,976.97
2016-12-05T07:29:54.032Z,976.98
2016-12-05T07:30:54.029Z,976.96
2016-12-05T07:31:54.025Z,976.97
2016-12-05T07:32:54.017Z,977.02
2016-12-05T07:33:54.012Z,977.04
2016-12-05T07:34:54.009Z,977.07
2016-12-05T07:35:54.004Z,977.1
2016-12-05T07:36:54.001Z,977.1
2016-12-05T07:37:53.997Z,977.1
2016-12-05T07:38:53.993Z,977.11
2016-12-05T07:39:53.989Z,977.09
2016-12-05T07:40:53.985Z,977.06
2016-12-05T07:41:53.981Z,977.04
2016-12-05T07:42:53.977Z,977.07
2016-12-05T07:43:53.973Z,977.08
2016-12-05T07:44:53.969Z,977.04
2016-12-05T07:45:53.965Z,977.02
2016-12-05T07:46:53.961Z,977.05
2016-12-05T07:47:53.957Z,977.05
2016-12-05T07:48:53.953Z,977.03
2016-12-05T07:49:53.949Z,977.08
2016-12-05T07:50:53.941Z,977.06
2016-12-05T07:51:53.937Z,977.1
2016-12-05T07:52:53.933Z,977.12
2016-12-05T07:53:53.933Z,977.15
2016-12-05T07:54:53.929Z,977.11
2016-12-05T07:55:53.925Z,977.19
2016-12-05T07:56:53.921Z,977.15
2016-12-05T07:57:53.913Z,977.18
2016-12-05T07:58:53.909Z,977.17
2016-12-05T07:59:53.905Z,977.19
2016-12-05T08:00:53.901Z,977.17
2016-12-05T08:01:53.896Z,977.16
2016-12-05T08:02:53.893Z,977.21
2016-12-05T08:03:53.889Z,977.17
2016-12-05T08:04:53.885Z,977.16
2016-12-05T08:05:53.881Z,977.2
2016-12-05T08:06:53.877Z,977.22
2016-12-05T08:07:53.873Z,977.21
2016-12-05T08:08:53.869Z,977.17
2016-12-05T08:09:53.865Z,977.19
2016-12-05T08:10:53.861Z,977.22
2016-12-05T08:11:53.857Z,977.21
2016-12-05T08:12:53.853Z,977.26
2016-12-05T08:13:53.849Z,977.22
2016-12-05T08:14:53.845Z,977.25
2016-12-05T08:15:53.841Z,977.27
2016-12-05T08:16:53.837Z,977.31
2016-12-05T08:17:53.833Z,977.25
2016-12-05T08:18:53.829Z,977.29
2016-12-05T08:19:53.825Z,977.3
2016-12-05T08:20:53.821Z,977.27
2016-12-05T08:21:53.817Z,977.27
2016-12-05T08:22:53.813Z,977.25
2016-12-05T08:23:53.809Z,977.27
2016-12-05T08:24:53.805Z,977.25
2016-12-05T08:25:53.801Z,977.29
2016-12-05T08:26:53.797Z,977.26
2016-12-05T08:27:53.793Z,977.25
2016-12-05T08:28:53.815Z,977.27
2016-12-05T08:29:53.785Z,977.29
2016-12-05T08:30:53.782Z,977.25
2016-12-05T08:31:53.777Z,977.27
2016-12-05T08:32:53.922Z,977.32
2016-12-05T08:33:53.769Z,977.27
2016-12-05T08:34:53.765Z,977.32
2016-12-05T08:35:53.761Z,977.29
2016-12-05T08:36:53.758Z,977.29
2016-12-05T08:37:53.753Z,977.26
2016-12-05T08:38:53.749Z,977.26
2016-12-05T08:39:53.749Z,977.28
2016-12-05T08:40:53.742Z,977.32
2016-12-05T08:41:53.737Z,977.3
2016-12-05T08:42:53.734Z,977.32
2016-12-05T08:43:53.730Z,977.31
2016-12-05T08:44:53.725Z,977.28
2016-12-05T08:45:53.722Z,977.3
2016-12-05T08:46:53.718Z,977.3
2016-12-05T08:47:53.714Z,977.29
2016-12-05T08:48:53.710Z,977.32
2016-12-05T08:49:53.706Z,977.29
2016-12-05T08:50:53.702Z,977.32
2016-12-05T08:51:53.698Z,977.31
2016-12-05T08:52:53.694Z,977.31
2016-12-05T08:53:53.690Z,977.36
2016-12-05T08:54:53.686Z,977.28
2016-12-05T08:55:53.682Z,977.31
2016-12-05T08:56:53.678Z,977.31
2016-12-05T08:57:53.674Z,977.29
2016-12-05T08:58:53.770Z,977.31
2016-12-05T08:59:53.666Z,977.34
2016-12-05T09:00:53.662Z,977.33
2016-12-05T09:01:53.658Z,977.35
2016-12-05T09:02:53.954Z,977.36
2016-12-05T09:03:53.650Z,977.37
2016-12-05T09:04:53.646Z,977.4
2016-12-05T09:05:53.642Z,977.4
2016-12-05T09:06:53.639Z,977.38
2016-12-05T09:07:53.634Z,977.41
2016-12-05T09:08:53.630Z,977.37
2016-12-05T09:09:53.627Z,977.42
2016-12-05T09:10:53.623Z,977.46
2016-12-05T09:11:53.619Z,977.44
2016-12-05T09:12:53.614Z,977.45
2016-12-05T09:13:53.611Z,977.47
2016-12-05T09:14:53.607Z,977.47
2016-12-05T09:15:53.603Z,977.49
2016-12-05T09:16:53.599Z,977.46
2016-12-05T09:17:53.595Z,977.47
2016-12-05T09:18:53.591Z,977.5
2016-12-05T09:19:53.587Z,977.45
2016-12-05T09:20:53.583Z,977.48
2016-12-05T09:21:53.579Z,977.47
2016-12-05T09:22:53.575Z,977.47
2016-12-05T09:23:53.571Z,977.49
2016-12-05T09:24:53.567Z,977.49
2016-12-05T09:25:53.563Z,977.51
2016-12-05T09:26:53.559Z,977.51
2016-12-05T09:27:53.555Z,977.52
2016-12-05T09:28:53.551Z,977.52
2016-12-05T09:29:53.547Z,977.58
2016-12-05T09:30:53.543Z,977.57
2016-12-05T09:31:53.543Z,977.58
2016-12-05T09:32:53.535Z,977.57
2016-12-05T09:33:53.531Z,977.58
2016-12-05T09:34:53.531Z,977.61
2016-12-05T09:35:53.527Z,977.56
2016-12-05T09:36:53.524Z,977.57
2016-12-05T09:37:53.519Z,977.62
2016-12-05T09:38:53.516Z,977.55
2016-12-05T09:39:53.512Z,977.57
2016-12-05T09:40:53.508Z,977.58
2016-12-05T09:41:53.504Z,977.59
2016-12-05T09:42:53.500Z,977.58
2016-12-05T09:43:53.496Z,977.6
2016-12-05T09:44:53.492Z,977.56
2016-12-05T09:45:53.488Z,977.58
2016-12-05T09:46:53.484Z,977.58
2016-12-05T09:47:53.480Z,977.61
2016-12-05T09:48:53.476Z,977.58
2016-12-05T09:49:53.472Z,977.57
2016-12-05T09:50:53.468Z,977.55
2016-12-05T09:51:53.466Z,977.55
2016-12-05T09:52:53.461Z,977.53
2016-12-05T09:53:53.457Z,977.53
2016-12-05T09:54:53.453Z,977.51
2016-12-05T09:55:53.449Z,977.5
2016-12-05T09:56:53.449Z,977.5
2016-12-05T09:57:53.445Z,977.49
2016-12-05T09:58:53.441Z,977.52
2016-12-05T09:59:53.437Z,977.54
2016-12-05T10:00:53.433Z,977.52
2016-12-05T10:01:53.429Z,977.53
2016-12-05T10:02:53.425Z,977.5
2016-12-05T10:03:53.421Z,977.53
2016-12-05T10:04:53.417Z,977.54
2016-12-05T10:05:53.413Z,977.55
2016-12-05T10:06:53.409Z,977.5
2016-12-05T10:07:53.405Z,977.52
2016-12-05T10:08:53.401Z,977.53
2016-12-05T10:09:53.397Z,977.5
2016-12-05T10:10:53.393Z,977.54
2016-12-05T10:11:53.393Z,977.51
2016-12-05T10:12:53.486Z,977.51
2016-12-05T10:13:53.386Z,977.53
2016-12-05T10:14:53.382Z,977.47
2016-12-05T10:15:53.378Z,977.48
2016-12-05T10:16:53.374Z,977.5
2016-12-05T10:17:53.370Z,977.48
2016-12-05T10:18:53.366Z,977.47
2016-12-05T10:19:53.362Z,977.42
2016-12-05T10:20:53.358Z,977.44
2016-12-05T10:21:53.354Z,977.47
2016-12-05T10:22:53.650Z,977.49
2016-12-05T10:23:53.346Z,977.45
2016-12-05T10:24:53.342Z,977.45
2016-12-05T10:25:53.342Z,977.47
2016-12-05T10:26:53.339Z,977.47
2016-12-05T10:27:53.334Z,977.51
2016-12-05T10:28:53.331Z,977.51
2016-12-05T10:29:53.327Z,977.5
2016-12-05T10:30:53.323Z,977.51
2016-12-05T10:31:53.319Z,977.49
2016-12-05T10:32:53.315Z,977.52
2016-12-05T10:33:53.311Z,977.51
2016-12-05T10:34:53.307Z,977.56
2016-12-05T10:35:53.308Z,977.54
2016-12-05T10:36:53.303Z,977.56
2016-12-05T10:37:53.299Z,977.54
2016-12-05T10:38:53.295Z,977.54
2016-12-05T10:39:53.291Z,977.53
2016-12-05T10:40:53.287Z,977.51
2016-12-05T10:41:53.283Z,977.54
2016-12-05T10:42:53.281Z,977.51
2016-12-05T10:43:53.275Z,977.54
2016-12-05T10:44:53.275Z,977.52
2016-12-05T10:45:53.267Z,977.49
2016-12-05T10:46:53.267Z,977.52
2016-12-05T10:47:53.263Z,977.55
2016-12-05T10:48:53.261Z,977.54
2016-12-05T10:49:53.256Z,977.53
2016-12-05T10:50:53.252Z,977.51
2016-12-05T10:51:53.248Z,977.48
2016-12-05T10:52:53.248Z,977.47
2016-12-05T10:53:53.240Z,977.48
2016-12-05T10:54:53.240Z,977.49
2016-12-05T10:55:53.238Z,977.46
2016-12-05T10:56:53.232Z,977.48
2016-12-05T10:57:53.228Z,977.49
2016-12-05T10:58:53.224Z,977.45
2016-12-05T10:59:53.220Z,977.46
2016-12-05T11:00:53.216Z,977.44
2016-12-05T11:01:53.216Z,977.48
2016-12-05T11:02:53.212Z,977.45
2016-12-05T11:03:53.208Z,977.49
2016-12-05T11:04:53.204Z,977.42
2016-12-05T11:05:53.202Z,977.49
2016-12-05T11:06:53.200Z,977.47
2016-12-05T11:07:53.196Z,977.45
2016-12-05T11:08:53.192Z,977.51
2016-12-05T11:09:53.189Z,977.49
2016-12-05T11:10:53.185Z,977.47
2016-12-05T11:11:53.181Z,977.47
2016-12-05T11:12:53.177Z,977.47
2016-12-05T11:13:53.177Z,977.45
2016-12-05T11:14:53.173Z,977.45
2016-12-05T11:15:53.169Z,977.41
2016-12-05T11:16:53.165Z,977.37
2016-12-05T11:17:53.170Z,977.42
2016-12-05T11:18:53.157Z,977.43
2016-12-05T11:19:53.157Z,977.34
2016-12-05T11:20:53.153Z,977.4
2016-12-05T11:21:53.149Z,977.4
2016-12-05T11:22:53.145Z,977.4
2016-12-05T11:23:53.141Z,977.41
2016-12-05T11:24:53.137Z,977.42
2016-12-05T11:25:53.133Z,977.38
2016-12-05T11:26:53.133Z,977.4
2016-12-05T11:27:53.129Z,977.42
2016-12-05T11:28:53.126Z,977.4
2016-12-05T11:29:53.121Z,977.44
2016-12-05T11:30:53.123Z,977.47
2016-12-05T11:31:53.117Z,977.46
2016-12-05T11:32:53.114Z,977.44
2016-12-05T11:33:53.110Z,977.44
2016-12-05T11:34:53.105Z,977.44
2016-12-05T11:35:53.102Z,977.4
2016-12-05T11:36:53.097Z,977.38
2016-12-05T11:37:53.098Z,977.37
2016-12-05T11:38:53.094Z,977.33
2016-12-05T11:39:53.090Z,977.37
2016-12-05T11:40:53.086Z,977.37
2016-12-05T11:41:53.082Z,977.35
2016-12-05T11:42:53.082Z,977.37
2016-12-05T11:43:53.078Z,977.37
2016-12-05T11:44:53.074Z,977.37
2016-12-05T11:45:53.070Z,977.38
2016-12-05T11:46:53.066Z,977.35
2016-12-05T11:47:53.062Z,977.37
2016-12-05T11:48:53.062Z,977.32
2016-12-05T11:49:53.059Z,977.34
2016-12-05T11:50:53.054Z,977.3
2016-12-05T11:51:53.051Z,977.31
2016-12-05T11:52:53.047Z,977.27
2016-12-05T11:53:53.046Z,977.3
2016-12-05T11:54:53.042Z,977.32
2016-12-05T11:55:53.039Z,977.31
2016-12-05T11:56:53.035Z,977.3
2016-12-05T11:57:53.031Z,977.32
2016-12-05T11:58:53.030Z,977.31
2016-12-05T11:59:53.027Z,977.35
2016-12-05T12:00:53.023Z,977.31
2016-12-05T12:01:53.019Z,977.33
2016-12-05T12:02:53.015Z,977.32
2016-12-05T12:03:53.015Z,977.3
2016-12-05T12:04:53.011Z,977.29
2016-12-05T12:05:53.007Z,977.28
2016-12-05T12:06:53.007Z,977.32
2016-12-05T12:07:52.999Z,977.26
2016-12-05T12:08:52.999Z,977.29
2016-12-05T12:09:52.995Z,977.26
2016-12-05T12:10:52.991Z,977.26
2016-12-05T12:11:52.987Z,977.26
2016-12-05T12:12:52.987Z,977.26
2016-12-05T12:13:52.983Z,977.23
2016-12-05T12:14:52.979Z,977.23
2016-12-05T12:15:52.976Z,977.23
2016-12-05T12:16:52.971Z,977.22
2016-12-05T12:17:52.968Z,977.2
2016-12-05T12:18:52.967Z,977.18
2016-12-05T12:19:52.964Z,977.2
2016-12-05T12:20:52.960Z,977.19
2016-12-05T12:21:52.956Z,977.17
2016-12-05T12:22:52.955Z,977.2
2016-12-05T12:23:52.952Z,977.21
2016-12-05T12:24:52.948Z,977.21
2016-12-05T12:25:52.944Z,977.2
2016-12-05T12:26:52.940Z,977.2
2016-12-05T12:27:52.940Z,977.19
2016-12-05T12:28:52.935Z,977.17
2016-12-05T12:29:52.932Z,977.21
2016-12-05T12:30:52.928Z,977.17